Time;durP1;ratioP1;P1;durP2;ratioP2;P2;SDS_P1;SDS_P2;PMS_P1;PMS_P2;Temp;Humidity;BMP_temperature;BMP_pressure;BME280_temperature;BME280_humidity;BME280_pressure;Samples;Min_cycle;Max_cycle;Signal;HPM_P1;HPM_P2
2023/09/24 00:01:14;;;;;;;5.10;1.98;;;;;;;;;;5095901;28;20126;-70
2023/09/24 00:03:40;;;;;;;7.18;2.25;;;;;;;;;;5112791;28;20035;-70
2023/09/24 00:06:09;;;;;;;6.30;1.80;;;;;;;;;;5112523;28;20055;-69
2023/09/24 00:08:35;;;;;;;5.28;2.00;;;;;;;;;;5095425;28;20483;-69
2023/09/24 00:11:02;;;;;;;4.67;1.80;;;14.70;99.90;;;;;;5112666;28;20089;-69
2023/09/24 00:13:38;;;;;;;9.38;2.28;;;14.00;99.90;;;;;;5112669;28;20046;-69
2023/09/24 00:16:06;;;;;;;8.23;1.98;;;;;;;;;;5112310;28;20453;-70
2023/09/24 00:18:35;;;;;;;7.40;1.98;;;;;;;;;;5112716;28;20082;-69
2023/09/24 00:21:02;;;;;;;9.32;2.10;;;;;;;;;;5112394;28;20039;-69
2023/09/24 00:23:28;;;;;;;8.45;1.75;;;14.70;99.90;;;;;;5095585;28;20058;-69
2023/09/24 00:25:55;;;;;;;8.70;1.83;;;;;;;;;;5112249;28;20044;-69
2023/09/24 00:28:22;;;;;;;6.55;2.00;;;;;;;;;;5112805;28;20078;-76
2023/09/24 00:30:50;;;;;;;5.70;1.83;;;;;;;;;;5112359;28;20092;-76
2023/09/24 00:33:16;;;;;;;6.10;1.70;;;13.50;99.90;;;;;;5112306;28;20118;-69
2023/09/24 00:35:43;;;;;;;4.53;1.70;;;;;;;;;;5112155;28;20088;-69
2023/09/24 00:38:09;;;;;;;5.65;2.00;;;;;;;;;;5112545;28;20043;-76
2023/09/24 00:40:35;;;;;;;4.25;1.50;;;;;;;;;;5095068;28;20445;-76
2023/09/24 00:43:01;;;;;;;4.07;1.60;;;;;;;;;;5111905;28;20071;-76
2023/09/24 00:45:28;;;;;;;8.65;1.90;;;;;;;;;;5112196;28;20447;-70
2023/09/24 00:47:56;;;;;;;7.10;2.10;;;;;;;;;;5112093;28;20096;-69
2023/09/24 00:50:24;;;;;;;6.38;1.60;;;;;;;;;;5112080;28;20101;-69
2023/09/24 00:52:50;;;;;;;7.65;2.00;;;;;;;;;;5112073;28;20036;-70
2023/09/24 00:55:17;;;;;;;9.70;2.00;;;;;;;;;;5111864;28;20175;-69
2023/09/24 00:57:43;;;;;;;6.70;1.60;;;;;;;;;;5111695;28;20074;-69
2023/09/24 01:00:12;;;;;;;5.47;1.70;;;13.90;99.90;;;;;;5112071;28;20058;-70
2023/09/24 01:02:39;;;;;;;7.85;2.00;;;;;;;;;;5111433;28;20484;-69
2023/09/24 01:05:09;;;;;;;5.60;1.73;;;;;;;;;;5114317;27;20059;-69
2023/09/24 01:07:36;;;;;;;4.30;1.48;;;;;;;;;;5097599;27;20054;-69
2023/09/24 01:10:02;;;;;;;6.20;1.75;;;;;;;;;;5115188;27;20043;-76
2023/09/24 01:12:31;;;;;;;8.27;2.38;;;;;;;;;;5115090;27;20039;-76
2023/09/24 01:14:57;;;;;;;7.65;1.65;;;;;;;;;;5114846;27;20502;-76
2023/09/24 01:17:25;;;;;;;7.43;2.13;;;13.80;99.90;;;;;;5114796;28;20491;-76
2023/09/24 01:19:54;;;;;;;4.35;1.52;;;;;;;;;;5115076;27;20046;-76
2023/09/24 01:22:20;;;;;;;4.72;1.73;;;;;;;;;;5115152;27;20035;-76
2023/09/24 01:24:46;;;;;;;8.27;2.22;;;;;;;;;;5115035;27;20066;-76
2023/09/24 01:27:13;;;;;;;2.83;1.42;;;;;;;;;;5114838;28;20510;-76
2023/09/24 01:29:40;;;;;;;5.03;1.70;;;;;;;;;;5098055;27;20039;-76
2023/09/24 01:32:06;;;;;;;4.00;1.73;;;;;;;;;;5114771;28;20043;-76
2023/09/24 01:34:36;;;;;;;5.57;1.83;;;;;;;;;;5114915;28;20122;-76
2023/09/24 01:37:08;;;;;;;6.78;2.03;;;;;;;;;;5098698;28;20034;-76
2023/09/24 01:39:36;;;;;;;4.78;1.63;;;;;;;;;;5115567;28;20055;-76
2023/09/24 01:42:02;;;;;;;4.70;2.05;;;13.40;99.90;;;;;;5125744;28;20090;-75
2023/09/24 01:44:32;;;;;;;5.55;2.10;;;13.30;99.90;;;;;;5136683;28;20031;-75
2023/09/24 01:46:58;;;;;;;5.60;1.90;;;;;;;;;;5136371;28;20023;-70
2023/09/24 01:49:25;;;;;;;3.72;1.63;;;;;;;;;;5136780;28;20494;-69
2023/09/24 01:51:51;;;;;;;4.25;1.70;;;;;;;;;;5135972;28;20035;-69
2023/09/24 01:54:17;;;;;;;6.80;2.00;;;;;;;;;;5130025;28;20058;-69
2023/09/24 01:56:43;;;;;;;5.75;1.83;;;;;;;;;;5114992;28;20046;-76
2023/09/24 01:59:09;;;;;;;3.45;1.75;;;;;;;;;;5116238;28;20039;-76
2023/09/24 02:01:36;;;;;;;4.68;1.90;;;;;;;;;;5127202;28;20043;-76
2023/09/24 02:04:03;;;;;;;6.97;2.20;;;;;;;;;;5098412;28;20047;-75
2023/09/24 02:06:30;;;;;;;9.18;2.40;;;;;;;;;;5116627;28;20055;-76
2023/09/24 02:08:56;;;;;;;6.75;2.30;;;;;;;;;;5115676;28;20043;-76
2023/09/24 02:11:22;;;;;;;6.55;2.28;;;;;;;;;;5114938;28;20463;-76
2023/09/24 02:13:49;;;;;;;6.18;2.85;;;;;;;;;;5114360;27;20122;-76
2023/09/24 02:16:15;;;;;;;6.68;2.63;;;;;;;;;;5117838;27;20100;-76
2023/09/24 02:18:41;;;;;;;7.53;2.67;;;;;;;;;;5118648;27;20509;-75
2023/09/24 02:21:14;;;;;;;6.38;3.00;;;13.40;99.90;;;;;;5118425;27;20058;-69
2023/09/24 02:23:40;;;;;;;9.05;3.08;;;;;;;;;;5118141;27;20047;-76
2023/09/24 02:26:08;;;;;;;6.93;2.63;;;;;;;;;;5101644;27;20103;-69
2023/09/24 02:28:38;;;;;;;7.38;3.33;;;;;;;;;;5136706;27;20054;-69
2023/09/24 02:31:05;;;;;;;8.57;3.20;;;;;;;;;;5118075;27;20043;-69
2023/09/24 02:33:31;;;;;;;6.13;2.72;;;;;;;;;;5118358;27;20078;-69
2023/09/24 02:35:57;;;;;;;7.68;3.00;;;;;;;;;;5117757;27;20046;-69
2023/09/24 02:38:25;;;;;;;6.72;3.35;;;;;;;;;;5117882;27;20038;-69
2023/09/24 02:40:51;;;;;;;5.03;3.17;;;;;;;;;;5101034;27;20046;-69
2023/09/24 02:43:17;;;;;;;5.38;2.95;;;;;;;;;;5117772;27;20039;-76
2023/09/24 02:45:44;;;;;;;7.10;3.50;;;;;;;;;;5117783;27;20505;-76
2023/09/24 02:48:12;;;;;;;5.25;3.28;;;;;;;;;;5117780;27;20039;-76
2023/09/24 02:50:39;;;;;;;8.02;3.40;;;;;;;;;;5117726;27;20047;-76
2023/09/24 02:53:07;;;;;;;7.15;3.60;;;;;;;;;;5117478;27;20083;-75
2023/09/24 02:55:34;;;;;;;8.57;3.83;;;;;;;;;;5117980;27;20050;-76
2023/09/24 02:58:01;;;;;;;7.38;3.53;;;;;;;;;;5100960;27;20039;-76
2023/09/24 03:00:34;;;;;;;5.78;3.55;;;;;;;;;;5100781;27;20104;-75
2023/09/24 03:03:01;;;;;;;7.90;3.30;;;;;;;;;;5101716;27;20082;-76
2023/09/24 03:05:28;;;;;;;5.28;3.75;;;13.70;99.90;;;;;;5118009;27;20542;-75
2023/09/24 03:07:55;;;;;;;6.75;3.45;;;;;;;;;;5113752;28;20098;-76
2023/09/24 03:10:22;;;;;;;7.35;3.90;;;;;;;;;;5113893;28;20089;-75
2023/09/24 03:12:49;;;;;;;6.40;3.83;;;;;;;;;;5113815;28;20070;-76
2023/09/24 03:15:15;;;;;;;14.85;4.05;;;;;;;;;;5114048;28;20042;-76
2023/09/24 03:17:43;;;;;;;8.95;3.97;;;;;;;;;;5113904;28;20548;-75
2023/09/24 03:20:19;;;;;;;8.02;3.67;;;13.50;99.90;;;;;;5113647;28;20058;-75
2023/09/24 03:22:53;;;;;;;8.23;3.65;;;;;;;;;;5113625;28;20096;-76
2023/09/24 03:25:20;;;;;;;8.55;4.05;;;;;;;;;;5113619;28;20122;-76
2023/09/24 03:27:46;;;;;;;6.78;3.83;;;;;;;;;;5113648;28;20483;-76
2023/09/24 03:30:14;;;;;;;5.22;3.70;;;;;;;;;;5096865;28;20039;-76
2023/09/24 03:32:41;;;;;;;10.18;3.80;;;;;;;;;;5113205;28;20500;-76
2023/09/24 03:35:09;;;;;;;8.65;4.25;;;;;;;;;;5113293;28;20078;-76
2023/09/24 03:37:37;;;;;;;5.95;3.50;;;;;;;;;;5096649;28;20103;-75
2023/09/24 03:40:06;;;;;;;11.38;4.00;;;13.50;99.90;;;;;;5113856;28;20543;-76
2023/09/24 03:42:32;;;;;;;10.95;4.35;;;;;;;;;;5113617;28;20467;-76
2023/09/24 03:45:00;;;;;;;7.05;3.70;;;;;;;;;;5113191;28;20043;-76
2023/09/24 03:47:26;;;;;;;8.88;3.88;;;;;;;;;;5113294;28;20051;-76
2023/09/24 03:49:52;;;;;;;8.77;4.00;;;;;;;;;;5096328;28;20051;-76
2023/09/24 03:52:18;;;;;;;7.60;3.75;;;14.00;99.90;;;;;;5096348;28;20128;-76
2023/09/24 03:54:44;;;;;;;11.25;3.83;;;;;;;;;;5112871;28;20067;-76
2023/09/24 03:57:10;;;;;;;8.23;4.38;;;;;;;;;;5112842;28;20043;-76
2023/09/24 03:59:36;;;;;;;9.38;4.10;;;;;;;;;;5113088;28;20403;-76
2023/09/24 04:02:06;;;;;;;6.60;4.28;;;;;;;;;;5095960;28;20044;-76
2023/09/24 04:04:35;;;;;;;9.23;4.40;;;;;;;;;;5113043;28;20101;-76
2023/09/24 04:07:04;;;;;;;6.85;4.45;;;;;;;;;;5112963;28;20135;-76
2023/09/24 04:09:33;;;;;;;10.95;4.93;;;;;;;;;;5095626;28;20043;-76
2023/09/24 04:12:00;;;;;;;9.55;3.92;;;;;;;;;;5112598;28;20399;-69
2023/09/24 04:14:26;;;;;;;6.70;4.30;;;;;;;;;;5095679;28;20202;-69
2023/09/24 04:16:53;;;;;;;9.98;4.75;;;;;;;;;;5112639;28;20084;-69
2023/09/24 04:19:19;;;;;;;11.55;4.60;;;;;;;;;;5113041;28;20093;-69
2023/09/24 04:21:45;;;;;;;8.30;4.90;;;;;;;;;;5113869;28;20043;-69
2023/09/24 04:24:12;;;;;;;6.88;4.50;;;;;;;;;;5112476;28;20047;-69
2023/09/24 04:26:39;;;;;;;10.70;5.30;;;;;;;;;;5112835;28;20399;-69
2023/09/24 04:29:06;;;;;;;9.02;4.85;;;;;;;;;;5112396;28;20056;-69
2023/09/24 04:31:32;;;;;;;10.27;4.60;;;;;;;;;;5112447;28;20040;-69
2023/09/24 04:33:58;;;;;;;10.52;4.95;;;;;;;;;;5095674;28;20042;-76
2023/09/24 04:36:24;;;;;;;8.65;5.13;;;;;;;;;;5095334;28;20048;-76
2023/09/24 04:38:53;;;;;;;8.15;5.20;;;;;;;;;;5095106;28;20040;-76
2023/09/24 04:41:20;;;;;;;10.45;5.10;;;;;;;;;;5112118;28;20044;-76
2023/09/24 04:43:47;;;;;;;9.23;4.90;;;;;;;;;;5112520;28;20483;-76
2023/09/24 04:46:14;;;;;;;8.07;4.82;;;;;;;;;;5112368;28;20039;-69
2023/09/24 04:48:40;;;;;;;9.15;5.00;;;;;;;;;;5095063;28;20610;-69
2023/09/24 04:51:06;;;;;;;10.50;5.20;;;13.40;99.90;;;;;;5112389;28;20140;-70
2023/09/24 04:53:33;;;;;;;11.68;5.55;;;;;;;;;;5112649;28;20508;-70
2023/09/24 04:55:59;;;;;;;12.50;5.30;;;;;;;;;;5111945;28;20411;-69
2023/09/24 04:58:25;;;;;;;9.23;4.90;;;;;;;;;;5112235;28;20083;-69
2023/09/24 05:00:51;;;;;;;8.52;5.18;;;;;;;;;;5111897;28;20031;-69
2023/09/24 05:03:17;;;;;;;11.02;5.60;;;;;;;;;;5112004;28;20544;-76
2023/09/24 05:05:43;;;;;;;9.05;5.13;;;;;;;;;;5114114;28;20043;-75
2023/09/24 05:08:10;;;;;;;9.48;5.40;;;;;;;;;;5134395;28;20107;-75
2023/09/24 05:10:40;;;;;;;10.40;4.90;;;;;;;;;;5118093;28;20062;-69
2023/09/24 05:13:06;;;;;;;9.20;5.28;;;;;;;;;;5135068;28;20043;-69
2023/09/24 05:15:32;;;;;;;16.20;5.50;;;;;;;;;;5134547;28;20084;-69
2023/09/24 05:17:58;;;;;;;8.65;4.85;;;;;;;;;;5117684;28;20039;-69
2023/09/24 05:20:25;;;;;;;9.23;5.22;;;;;;;;;;5124020;28;20479;-69
2023/09/24 05:22:51;;;;;;;7.50;5.10;;;;;;;;;;5113306;28;20043;-69
2023/09/24 05:25:19;;;;;;;9.95;5.55;;;;;;;;;;5094844;28;20044;-69
2023/09/24 05:27:45;;;;;;;7.93;4.80;;;;;;;;;;5095099;28;20043;-69
2023/09/24 05:30:12;;;;;;;12.63;5.32;;;;;;;;;;5111456;28;20044;-69
2023/09/24 05:32:38;;;;;;;14.05;6.43;;;;;;;;;;5111639;28;20043;-69
2023/09/24 05:35:04;;;;;;;10.48;5.32;;;13.80;99.90;;;;;;5095163;28;20114;-68
2023/09/24 05:37:30;;;;;;;9.18;4.82;;;;;;;;;;5095677;28;20040;-69
2023/09/24 05:39:56;;;;;;;10.52;5.25;;;;;;;;;;5095199;28;20051;-69
2023/09/24 05:42:22;;;;;;;8.80;5.03;;;;;;;;;;5111562;28;20124;-69
2023/09/24 05:44:48;;;;;;;11.10;5.75;;;;;;;;;;5094478;28;20054;-69
2023/09/24 05:47:15;;;;;;;10.10;5.28;;;;;;;;;;5111380;28;20080;-75
2023/09/24 05:49:41;;;;;;;10.93;5.45;;;;;;;;;;5111925;28;20554;-75
2023/09/24 05:52:07;;;;;;;11.05;5.32;;;;;;;;;;5115617;28;20122;-76
2023/09/24 05:54:33;;;;;;;8.13;5.13;;;;;;;;;;5098252;28;20040;-76
2023/09/24 05:56:59;;;;;;;12.10;5.65;;;;;;;;;;5115296;28;20035;-76
2023/09/24 05:59:25;;;;;;;11.27;5.45;;;;;;;;;;5098563;28;20070;-76
2023/09/24 06:01:51;;;;;;;7.40;5.68;;;;;;;;;;5115436;28;20491;-76
2023/09/24 06:04:17;;;;;;;8.40;5.05;;;;;;;;;;5115227;28;20445;-75
2023/09/24 06:06:43;;;;;;;8.80;5.20;;;;;;;;;;5116973;27;20062;-76
2023/09/24 06:09:10;;;;;;;9.75;5.53;;;;;;;;;;5118583;27;20390;-76
2023/09/24 06:11:37;;;;;;;13.27;6.10;;;;;;;;;;5118446;27;20074;-69
2023/09/24 06:14:08;;;;;;;10.77;5.18;;;;;;;;;;5118542;27;20035;-69
2023/09/24 06:16:35;;;;;;;9.98;5.75;;;12.00;99.90;;;;;;5118461;27;20043;-69
2023/09/24 06:19:02;;;;;;;13.75;5.43;;;;;;;;;;5118283;27;20395;-69
2023/09/24 06:21:27;;;;;;;15.48;5.68;;;12.20;99.90;;;;;;5118595;27;20147;-69
2023/09/24 06:23:55;;;;;;;10.30;5.50;;;;;;;;;;5118013;27;20348;-75
2023/09/24 06:26:21;;;;;;;12.75;6.03;;;;;;;;;;5118629;27;20043;-76
2023/09/24 06:28:47;;;;;;;17.27;6.45;;;;;;;;;;5118313;27;20031;-77
2023/09/24 06:31:13;;;;;;;12.95;6.10;;;;;;;;;;5118455;27;20122;-76
2023/09/24 06:33:39;;;;;;;12.35;6.28;;;;;;;;;;5118089;27;20043;-70
2023/09/24 06:36:07;;;;;;;13.02;6.20;;;;;;;;;;5101188;27;20460;-69
2023/09/24 06:38:33;;;;;;;11.38;6.28;;;;;;;;;;5118216;27;20050;-69
2023/09/24 06:41:00;;;;;;;13.68;6.38;;;;;;;;;;5101000;27;20035;-70
2023/09/24 06:43:26;;;;;;;13.05;6.03;;;;;;;;;;5118373;27;20046;-69
2023/09/24 06:45:55;;;;;;;10.38;6.30;;;;;;;;;;5101118;27;20118;-70
2023/09/24 06:48:22;;;;;;;12.07;6.38;;;;;;;;;;5117955;27;20459;-69
2023/09/24 06:50:49;;;;;;;9.05;6.03;;;;;;;;;;5136504;27;20077;-69
2023/09/24 06:53:15;;;;;;;10.95;6.05;;;;;;;;;;5100647;27;20053;-76
2023/09/24 06:55:41;;;;;;;13.02;6.15;;;;;;;;;;5117923;27;20127;-76
2023/09/24 06:58:07;;;;;;;12.63;6.95;;;;;;;;;;5117882;27;20067;-76
2023/09/24 07:00:33;;;;;;;9.27;5.70;;;;;;;;;;5117311;27;20044;-76
2023/09/24 07:02:59;;;;;;;9.35;5.28;;;;;;;;;;5117496;27;20050;-76
2023/09/24 07:05:26;;;;;;;14.27;6.43;;;;;;;;;;5117747;27;20490;-76
2023/09/24 07:07:52;;;;;;;15.60;6.68;;;;;;;;;;5116649;28;20512;-76
2023/09/24 07:10:19;;;;;;;15.00;6.05;;;;;;;;;;5116519;28;20046;-76
2023/09/24 07:12:45;;;;;;;13.10;6.55;;;;;;;;;;5116219;28;20047;-76
2023/09/24 07:15:11;;;;;;;11.95;6.00;;;;;;;;;;5116560;28;20546;-76
2023/09/24 07:17:38;;;;;;;14.18;6.32;;;;;;;;;;5116386;28;20039;-75
2023/09/24 07:20:05;;;;;;;16.10;6.40;;;13.90;99.90;;;;;;5116440;28;20475;-76
2023/09/24 07:22:31;;;;;;;10.75;6.00;;;;;;;;;;5099668;28;20617;-76
2023/09/24 07:24:58;;;;;;;13.45;6.65;;;;;;;;;;5116472;28;20085;-75
2023/09/24 07:27:24;;;;;;;13.00;5.95;;;;;;;;;;5116735;28;20083;-75
2023/09/24 07:29:50;;;;;;;14.48;5.88;;;;;;;;;;5116798;28;20039;-75
2023/09/24 07:32:17;;;;;;;11.35;6.80;;;;;;;;;;5116130;28;20118;-69
2023/09/24 07:34:46;;;;;;;14.02;6.68;;;;;;;;;;5116586;28;20158;-69
2023/09/24 07:37:12;;;;;;;12.52;6.10;;;;;;;;;;5116337;28;20088;-69
2023/09/24 07:39:39;;;;;;;15.77;6.18;;;;;;;;;;5116398;28;20637;-69
2023/09/24 07:42:06;;;;;;;12.27;5.78;;;;;;;;;;5116437;28;20149;-69
2023/09/24 07:44:33;;;;;;;12.75;6.40;;;;;;;;;;5116252;28;20102;-69
2023/09/24 07:46:59;;;;;;;14.68;6.38;;;;;;;;;;5116255;28;20057;-76
2023/09/24 07:49:25;;;;;;;13.80;6.10;;;;;;;;;;5134824;28;20117;-76
2023/09/24 07:51:51;;;;;;;12.90;6.95;;;;;;;;;;5116045;28;20043;-76
2023/09/24 07:54:17;;;;;;;11.60;5.47;;;;;;;;;;5115979;28;20035;-76
2023/09/24 07:56:44;;;;;;;14.88;5.88;;;;;;;;;;5116254;28;20039;-76
2023/09/24 07:59:10;;;;;;;10.63;5.60;;;14.20;99.90;;;;;;5116460;28;20035;-76
2023/09/24 08:01:36;;;;;;;11.43;5.40;;;15.10;99.90;;;;;;5099344;28;20395;-76
2023/09/24 08:04:03;;;;;;;13.75;5.13;;;;;;;;;;5116493;28;20041;-76
2023/09/24 08:06:29;;;;;;;12.30;5.55;;;;;;;;;;5099793;28;20045;-76
2023/09/24 08:08:58;;;;;;;10.13;4.97;;;14.30;99.90;;;;;;5077208;27;1126221;-69
2023/09/24 08:11:24;;;;;;;12.32;5.00;;;;;;;;;;5117262;27;20051;-76
2023/09/24 08:13:51;;;;;;;13.48;5.43;;;;;;;;;;5117147;27;20043;-76
2023/09/24 08:16:17;;;;;;;11.60;5.45;;;;;;;;;;5117745;27;20074;-76
2023/09/24 08:18:44;;;;;;;8.95;4.95;;;;;;;;;;5117589;27;20084;-76
2023/09/24 08:21:10;;;;;;;10.45;4.80;;;;;;;;;;5100674;27;20038;-76
2023/09/24 08:23:36;;;;;;;12.32;4.25;;;;;;;;;;5117317;27;20041;-76
2023/09/24 08:26:02;;;;;;;9.70;4.78;;;;;;;;;;5119123;27;20532;-69
2023/09/24 08:28:28;;;;;;;9.50;4.40;;;;;;;;;;5125543;27;20113;-76
2023/09/24 08:30:54;;;;;;;10.32;4.50;;;;;;;;;;5138257;27;20023;-75
2023/09/24 08:33:20;;;;;;;11.40;5.18;;;;;;;;;;5138095;27;20053;-75
2023/09/24 08:35:47;;;;;;;8.57;4.13;;;;;;;;;;5135194;27;20027;-75
2023/09/24 08:38:14;;;;;;;11.73;5.57;;;14.90;99.90;;;;;;5132891;27;20047;-76
2023/09/24 08:40:40;;;;;;;9.85;4.10;;;15.80;99.90;;;;;;5127222;27;20551;-76
2023/09/24 08:43:09;;;;;;;10.25;4.10;;;;;;;;;;5116120;27;20114;-76
2023/09/24 08:45:36;;;;;;;9.85;3.80;;;;;;;;;;5116405;27;20046;-76
2023/09/24 08:48:07;;;;;;;11.23;3.50;;;;;;;;;;5099340;27;20031;-77
2023/09/24 08:50:37;;;;;;;8.10;3.30;;;;;;;;;;5116169;27;20050;-76
2023/09/24 08:53:05;;;;;;;11.60;3.75;;;;;;;;;;5115294;27;20051;-76
2023/09/24 08:55:31;;;;;;;7.75;3.10;;;;;;;;;;5115556;27;20073;-77
2023/09/24 08:57:57;;;;;;;10.80;3.42;;;;;;;;;;5115287;27;20471;-77
2023/09/24 09:00:24;;;;;;;6.68;2.85;;;;;;;;;;5115426;27;20112;-77
2023/09/24 09:02:50;;;;;;;6.10;3.03;;;;;;;;;;5115140;27;20435;-77
2023/09/24 09:05:23;;;;;;;7.00;2.83;;;;;;;;;;5098673;27;20046;-76
2023/09/24 09:08:00;;;;;;;10.05;3.05;;;15.60;99.90;;;;;;5115075;27;20062;-76
2023/09/24 09:10:27;;;;;;;11.98;3.40;;;;;;;;;;5081472;27;20039;-70
2023/09/24 09:13:19;;;;;;;9.15;3.45;;;;;;;;;;5098471;27;20039;-70
2023/09/24 09:15:46;;;;;;;6.15;2.53;;;;;;;;;;5115535;27;20126;-70
2023/09/24 09:18:26;;;;;;;7.38;2.75;;;16.60;99.90;;;;;;5115248;27;20035;-77
2023/09/24 09:20:59;;;;;;;6.00;2.30;;;;;;;;;;5098020;27;20047;-76
2023/09/24 09:23:44;;;;;;;9.25;2.78;;;16.10;99.90;;;;;;5114895;27;20130;-77
2023/09/24 09:26:10;;;;;;;6.15;2.45;;;;;;;;;;5098163;27;20097;-77
2023/09/24 09:28:36;;;;;;;4.45;2.30;;;;;;;;;;5115299;27;20399;-77
2023/09/24 09:31:07;;;;;;;5.18;2.50;;;;;;;;;;5114991;28;20133;-77
2023/09/24 09:33:34;;;;;;;9.75;2.47;;;;;;;;;;5098018;27;20198;-77
2023/09/24 09:36:00;;;;;;;7.18;2.28;;;;;;;;;;5097923;28;20035;-77
2023/09/24 09:38:27;;;;;;;7.65;2.25;;;;;;;;;;5114904;28;20066;-77
2023/09/24 09:40:57;;;;;;;5.32;2.22;;;;;;;;;;5114821;28;20046;-77
2023/09/24 09:43:27;;;;;;;7.68;2.47;;;16.40;99.90;;;;;;5097563;28;20504;-76
2023/09/24 09:45:55;;;;;;;8.15;2.40;;;;;;;;;;5114614;28;20073;-76
2023/09/24 09:48:28;;;;;;;7.55;2.53;;;;;;;;;;5133147;28;20039;-77
2023/09/24 09:50:58;;;;;;;8.57;2.60;;;;;;;;;;5114326;28;20053;-77
2023/09/24 09:53:25;;;;;;;8.88;2.28;;;;;;;;;;5114375;28;20440;-77
2023/09/24 09:55:53;;;;;;;6.95;2.75;;;;;;;;;;5097924;28;20035;-77
2023/09/24 09:58:19;;;;;;;6.28;2.10;;;16.70;99.90;;;;;;5097458;28;20086;-76
2023/09/24 10:00:46;;;;;;;7.57;2.70;;;;;;;;;;5114683;28;20479;-77
2023/09/24 10:03:12;;;;;;;5.50;2.25;;;;;;;;;;5114987;28;20078;-70
2023/09/24 10:05:39;;;;;;;7.32;2.33;;;;;;;;;;5114550;28;20556;-71
2023/09/24 10:08:42;;;;;;;10.52;2.47;;;17.00;99.90;;;;;;5077140;28;20055;-70
2023/09/24 10:11:09;;;;;;;7.05;2.25;;;;;;;;;;5111118;28;20123;-77
2023/09/24 10:13:49;;;;;;;6.75;2.20;;;17.10;99.90;;;;;;5111168;28;20043;-77
2023/09/24 10:16:27;;;;;;;5.72;2.22;;;17.70;99.90;;;;;;5094450;28;20043;-77
2023/09/24 10:18:58;;;;;;;9.00;2.33;;;;;;;;;;5111090;28;20043;-76
2023/09/24 10:21:40;;;;;;;6.85;2.38;;;;;;;;;;5111158;28;20043;-77
2023/09/24 10:24:06;;;;;;;7.80;2.35;;;;;;;;;;5093833;28;20050;-77
2023/09/24 10:27:02;;;;;;;5.03;2.15;;;17.40;99.90;;;;;;5111418;28;20441;-77
2023/09/24 10:29:46;;;;;;;8.85;2.83;;;18.10;99.90;;;;;;5094507;28;20122;-77
2023/09/24 10:32:21;;;;;;;8.48;2.22;;;17.10;99.90;;;;;;5111308;28;20043;-77
2023/09/24 10:34:55;;;;;;;7.43;2.13;;;18.30;99.90;;;;;;5111547;28;20448;-77
2023/09/24 10:37:21;;;;;;;6.50;2.20;;;;;;;;;;5114723;28;20047;-77
2023/09/24 10:40:05;;;;;;;8.25;2.60;;;17.80;99.90;;;;;;5114923;28;20115;-77
2023/09/24 10:42:39;;;;;;;7.75;2.00;;;18.40;99.90;;;;;;5115242;28;20048;-75
2023/09/24 10:45:08;;;;;;;10.32;2.53;;;17.30;99.90;;;;;;5114389;28;20046;-75
2023/09/24 10:47:36;;;;;;;4.85;2.00;;;;;;;;;;5114299;28;20400;-69
2023/09/24 10:50:06;;;;;;;7.88;1.92;;;17.80;99.70;;;;;;5114582;28;20047;-70
2023/09/24 10:52:55;;;;;;;7.50;2.20;;;17.90;99.40;;;;;;5114126;28;20048;-69
2023/09/24 10:55:27;;;;;;;9.13;2.10;;;18.50;99.90;;;;;;5115749;28;20035;-69
2023/09/24 10:57:53;;;;;;;5.82;2.10;;;17.80;99.90;;;;;;5097680;28;20031;-70
2023/09/24 11:00:20;;;;;;;5.47;1.88;;;;;;;;;;5114276;28;20039;-70
2023/09/24 11:03:02;;;;;;;5.03;1.75;;;18.00;99.70;;;;;;5114815;28;20058;-70
2023/09/24 11:05:33;;;;;;;7.88;2.45;;;18.20;99.20;;;;;;5097655;28;20464;-70
2023/09/24 11:07:59;;;;;;;5.15;1.98;;;;;;;;;;5097071;28;20491;-71
2023/09/24 11:10:26;;;;;;;7.18;2.25;;;17.90;99.20;;;;;;5114226;28;20079;-70
2023/09/24 11:13:01;;;;;;;6.50;2.40;;;19.00;99.40;;;;;;5114361;28;20035;-70
2023/09/24 11:15:36;;;;;;;6.72;1.90;;;18.20;98.20;;;;;;5113938;28;20048;-76
2023/09/24 11:18:02;;;;;;;4.60;1.90;;;18.10;99.00;;;;;;5114105;28;20039;-71
2023/09/24 11:20:31;;;;;;;5.10;1.88;;;18.80;99.90;;;;;;5114644;28;20039;-70
2023/09/24 11:23:11;;;;;;;6.20;2.13;;;18.30;99.10;;;;;;5113954;28;20047;-70
2023/09/24 11:25:38;;;;;;;5.65;1.90;;;18.30;99.00;;;;;;5096845;28;20063;-70
2023/09/24 11:28:05;;;;;;;5.60;2.13;;;18.50;99.90;;;;;;5113951;28;20066;-77
2023/09/24 11:30:45;;;;;;;3.95;1.98;;;18.20;97.60;;;;;;5113936;28;20046;-77
2023/09/24 11:33:23;;;;;;;6.82;2.00;;;18.30;97.50;;;;;;5113770;28;20039;-77
2023/09/24 11:35:53;;;;;;;3.80;1.77;;;18.30;98.30;;;;;;5114255;28;20036;-77
2023/09/24 11:38:33;;;;;;;6.15;2.63;;;18.20;97.20;;;;;;5079985;28;20044;-77
2023/09/24 11:41:10;;;;;;;5.05;1.90;;;18.20;96.90;;;;;;5099178;28;20044;-77
2023/09/24 11:43:37;;;;;;;8.70;2.10;;;18.90;99.90;;;;;;5133970;28;20051;-78
2023/09/24 11:46:03;;;;;;;5.93;2.22;;;;;;;;;;5133233;28;20044;-77
2023/09/24 11:48:29;;;;;;;6.15;2.17;;;17.60;99.90;;;;;;5131818;28;20104;-77
2023/09/24 11:50:57;;;;;;;6.65;2.22;;;17.80;99.90;;;;;;5133134;28;20122;-77
2023/09/24 11:53:25;;;;;;;8.63;2.00;;;18.60;97.80;;;;;;5132275;28;20051;-77
2023/09/24 11:55:53;;;;;;;5.72;2.00;;;18.30;97.50;;;;;;5114836;28;20058;-77
2023/09/24 11:58:26;;;;;;;3.53;1.92;;;;;;;;;;5113098;28;20055;-77
2023/09/24 12:00:52;;;;;;;5.43;2.28;;;;;;;;;;5113261;28;20396;-78
2023/09/24 12:03:18;;;;;;;5.63;2.00;;;;;;;;;;5112773;28;20396;-77
2023/09/24 12:05:44;;;;;;;5.60;2.28;;;;;;;;;;5113065;28;20039;-77
2023/09/24 12:08:10;;;;;;;8.55;2.67;;;;;;;;;;5112765;28;20051;-70
2023/09/24 12:10:41;;;;;;;5.90;2.20;;;18.90;95.50;;;;;;5112837;28;20411;-70
2023/09/24 12:13:08;;;;;;;4.60;1.77;;;18.80;96.10;;;;;;5095629;28;20040;-71
2023/09/24 12:15:34;;;;;;;7.22;2.08;;;17.90;99.30;;;;;;5112752;28;20047;-70
2023/09/24 12:18:04;;;;;;;8.93;1.70;;;19.10;99.70;;;;;;5113084;28;20044;-70
2023/09/24 12:20:33;;;;;;;3.85;1.77;;;17.60;95.90;;;;;;5113110;28;20035;-70
2023/09/24 12:23:01;;;;;;;5.82;2.08;;;17.80;99.40;;;;;;5112668;28;20062;-77
2023/09/24 12:25:28;;;;;;;4.60;2.10;;;18.80;95.70;;;;;;5112640;28;20479;-77
2023/09/24 12:27:54;;;;;;;4.95;1.80;;;19.60;99.80;;;;;;5095587;28;20046;-77
2023/09/24 12:30:20;;;;;;;4.10;1.60;;;19.70;98.80;;;;;;5095395;28;20044;-78
2023/09/24 12:32:46;;;;;;;5.97;1.98;;;18.00;95.80;;;;;;5112317;28;20044;-77
2023/09/24 12:35:12;;;;;;;5.82;1.75;;;;;;;;;;5112356;28;20035;-77
2023/09/24 12:37:40;;;;;;;4.18;1.85;;;18.80;96.00;;;;;;5095982;28;20035;-77
2023/09/24 12:40:08;;;;;;;5.28;1.90;;;19.20;96.50;;;;;;5112744;28;20043;-77
2023/09/24 12:42:39;;;;;;;3.28;1.80;;;18.60;95.10;;;;;;5112772;28;20120;-77
2023/09/24 12:45:06;;;;;;;5.78;1.92;;;19.70;99.90;;;;;;5095714;28;20043;-70
2023/09/24 12:47:33;;;;;;;6.78;1.73;;;;;;;;;;5112217;28;20039;-71
2023/09/24 12:50:00;;;;;;;5.57;1.60;;;19.00;96.10;;;;;;5095253;28;20046;-70
2023/09/24 12:52:32;;;;;;;4.50;1.80;;;19.30;96.70;;;;;;5111709;28;20047;-70
2023/09/24 12:54:58;;;;;;;5.38;1.85;;;;;;;;;;5112319;28;20031;-70
2023/09/24 12:57:24;;;;;;;7.88;1.90;;;;;;;;;;5094979;28;20039;-70
2023/09/24 12:59:50;;;;;;;5.43;1.83;;;19.20;97.10;;;;;;5111913;28;20123;-70
2023/09/24 13:02:17;;;;;;;5.55;1.70;;;19.10;95.30;;;;;;5112504;28;20093;-77
2023/09/24 13:04:43;;;;;;;6.57;1.85;;;20.50;97.20;;;;;;5095959;28;20043;-70
2023/09/24 13:07:09;;;;;;;6.88;2.20;;;20.30;97.70;;;;;;5113361;27;20078;-77
2023/09/24 13:09:35;;;;;;;4.13;1.90;;;18.90;96.10;;;;;;5098015;27;20364;-77
2023/09/24 13:12:01;;;;;;;6.57;2.03;;;20.30;95.90;;;;;;5098199;27;20135;-77
2023/09/24 13:14:27;;;;;;;6.65;2.10;;;;;;;;;;5115856;27;20166;-78
2023/09/24 13:16:53;;;;;;;4.18;1.80;;;;;;;;;;5098323;27;20127;-77
2023/09/24 13:19:19;;;;;;;9.00;1.90;;;20.10;94.30;;;;;;5115327;27;20035;-77
2023/09/24 13:21:46;;;;;;;7.10;1.90;;;19.00;93.70;;;;;;5081302;27;20092;-77
2023/09/24 13:24:13;;;;;;;7.35;2.03;;;;;;;;;;5115362;27;20035;-77
2023/09/24 13:26:39;;;;;;;4.05;1.85;;;20.70;95.80;;;;;;5114894;27;20043;-77
2023/09/24 13:29:09;;;;;;;8.18;1.88;;;20.10;94.00;;;;;;5098342;27;20039;-77
2023/09/24 13:31:36;;;;;;;5.07;1.42;;;20.40;97.30;;;;;;5115011;27;20118;-77
2023/09/24 13:34:05;;;;;;;3.78;1.70;;;20.90;96.00;;;;;;5115191;28;20039;-77
2023/09/24 13:36:35;;;;;;;5.80;2.17;;;20.20;93.00;;;;;;5114910;28;20451;-77
2023/09/24 13:39:02;;;;;;;6.18;2.13;;;20.90;95.00;;;;;;5114859;28;20047;-70
2023/09/24 13:41:28;;;;;;;3.58;1.63;;;;;;;;;;5115202;28;20047;-70
2023/09/24 13:43:55;;;;;;;4.15;1.45;;;;;;;;;;5114803;28;20035;-70
2023/09/24 13:46:21;;;;;;;5.18;1.70;;;19.80;95.60;;;;;;5133361;28;20469;-70
2023/09/24 13:48:47;;;;;;;2.97;1.52;;;20.20;97.00;;;;;;5115107;28;20038;-77
2023/09/24 13:51:13;;;;;;;5.45;1.85;;;21.00;96.20;;;;;;5115027;28;20031;-77
2023/09/24 13:53:39;;;;;;;3.53;1.77;;;;;;;;;;5115167;28;20042;-77
2023/09/24 13:56:15;;;;;;;5.88;1.75;;;20.60;93.30;;;;;;5114888;28;20372;-77
2023/09/24 13:58:41;;;;;;;4.20;1.92;;;20.60;96.60;;;;;;5097858;28;20035;-77
2023/09/24 14:01:07;;;;;;;6.03;2.15;;;;;;;;;;5115030;28;20391;-77
2023/09/24 14:03:34;;;;;;;3.55;1.50;;;20.80;92.60;;;;;;5114972;28;20510;-77
2023/09/24 14:06:02;;;;;;;5.30;1.70;;;20.50;92.80;;;;;;5133610;28;20054;-70